Triumphant — WDG8773 — position and weather

sailwx.info

Track history (hours):
 
Tides and Currents Weather Stations Pressure Air Temp Water Temp Dewpoint Dewpoint Depression Visibility Wind Speed Wind Dir Waves Ship Positions

Triumphant

Owner: Harbor Breeze Corporation, Long Beach, CA. More information available from US FCC via Universal Licensing System and Coast Guard Vessel Documentation Center.

Last reported at 2017-Nov-20 00:21 UTC. Time now 2017-Nov-21 04:48 UTC.
Position N 33°34' W 118°18'.

Length 26 m.

Type: Passenger vessel. MMSI: 367580930.

Date/timePositionNaut miles runAvg speedWind from/ knotsBaromVisibWave heightAir tempDewpointWater temp
2017-Nov-20 00:21N 33°34' W 118°18'513.4
2017-Nov-19 23:57N 33°36' W 118°12'4 2.4
2017-Nov-19 22:29N 33°39' W 118°14'712.6
2017-Nov-19 21:57N 33°39' W 118°22'610.0
2017-Nov-19 21:22N 33°44' W 118°26'8 0.4
2017-Nov-19 01:16N 33°44' W 118°17'0 0.0
2017-Nov-19 01:00N 33°44' W 118°17'0 0.0
2017-Nov-19 00:30N 33°44' W 118°17'3 6.0
2017-Nov-18 23:59N 33°41' W 118°15'10 8.3
2017-Nov-18 22:49N 33°32' W 118°11'514.9
2017-Nov-18 22:31N 33°37' W 118°12'8 7.5
2017-Nov-18 21:25N 33°44' W 118°17'0 0.0
2017-Nov-18 21:00N 33°44' W 118°17'6 0.1
2017-Nov-17 00:56N 33°38' W 118°17'3 3.5
2017-Nov-17 00:01N 33°35' W 118°18'022.7
2017-Nov-17 00:00N 33°35' W 118°18'5 3.6
2017-Nov-16 22:28N 33°39' W 118°13'1124.9
2017-Nov-16 22:01N 33°31' W 118°23'2 4.0
2017-Nov-16 21:30N 33°29' W 118°23'714.0
2017-Nov-16 21:00N 33°34' W 118°17'6 0.3
2017-Nov-16 01:15N 33°38' W 118°13'521.2
2017-Nov-16 01:00N 33°33' W 118°15'3 4.7
2017-Nov-16 00:25N 33°32' W 118°18'1 2.3
2017-Nov-15 23:58N 33°33' W 118°17'1224.5
2017-Nov-15 23:29N 33°43' W 118°11'6 5.1
2017-Nov-15 22:18N 33°37' W 118°13'1122.4
2017-Nov-15 21:49N 33°28' W 118°21'1 2.1
2017-Nov-15 21:27N 33°29' W 118°21'716.5
2017-Nov-15 21:00N 33°36' W 118°18'11 3.9
2017-Nov-15 18:10N 33°46' W 118°12'10 0.6
2017-Nov-15 01:06N 33°37' W 118°18'324.8
2017-Nov-15 00:59N 33°36' W 118°22'1 1.5
2017-Nov-15 00:29N 33°35' W 118°22'3 6.7
2017-Nov-14 23:59N 33°36' W 118°18'11 8.0
2017-Nov-14 22:40N 33°45' W 118°12'719.0
2017-Nov-14 22:18N 33°39' W 118°13'720.9
2017-Nov-14 21:59N 33°35' W 118°20'2 3.8
2017-Nov-14 21:28N 33°37' W 118°19'2 4.2
2017-Nov-14 21:00N 33°37' W 118°17'1010.6
2017-Nov-14 20:03N 33°46' W 118°12'0 5.8
2017-Nov-14 20:00N 33°45' W 118°11'4 7.8
2017-Nov-14 19:26N 33°44' W 118°17'4 0.2
2017-Nov-14 01:41N 33°46' W 118°12'0 1.7
2017-Nov-14 01:29N 33°45' W 118°12'816.1
2017-Nov-14 01:01N 33°38' W 118°14'4 7.9
2017-Nov-14 00:29N 33°37' W 118°19'2 3.2
2017-Nov-14 00:00N 33°37' W 118°17'918.6
2017-Nov-13 23:30N 33°45' W 118°11'1 1.3
2017-Nov-13 23:00N 33°46' W 118°12'2 3.1
2017-Nov-13 22:30N 33°44' W 118°11'1217.5
2017-Nov-13 21:49N 33°34' W 118°17'6 0.3
2017-Nov-13 01:39N 33°39' W 118°14'321.9
2017-Nov-13 01:30N 33°36' W 118°17'510.8
2017-Nov-13 01:00N 33°33' W 118°21'15 8.3
2017-Nov-12 23:10N 33°46' W 118°12'0 0.0
2017-Nov-12 23:00N 33°46' W 118°12'815.5
2017-Nov-12 22:30N 33°39' W 118°16'1225.2
2017-Nov-12 22:00N 33°31' W 118°27'4 3.3
2017-Nov-12 20:54N 33°29' W 118°31'1214.5
2017-Nov-12 20:05N 33°36' W 118°20'221.5
2017-Nov-12 20:00N 33°37' W 118°18'10 0.6
2017-Nov-12 03:26N 33°45' W 118°11'2 3.2
2017-Nov-12 02:54N 33°46' W 118°13'2 0.6
2017-Nov-11 23:55N 33°45' W 118°11'816.8
2017-Nov-11 23:26N 33°41' W 118°20'  
Track history (hours):
 
Tides and Currents Weather Stations Pressure Air Temp Water Temp Dewpoint Dewpoint Depression Visibility Wind Speed Wind Dir Waves Ship Positions

Triumphant

Owner: Harbor Breeze Corporation, Long Beach, CA. More information available from US FCC via Universal Licensing System and Coast Guard Vessel Documentation Center.

Last reported at 2017-Nov-20 00:21 UTC. Time now 2017-Nov-21 04:48 UTC.
Position N 33°34' W 118°18'.

Length 26 m.

Type: Passenger vessel. MMSI: 367580930.

Date/timePositionNaut miles runAvg speedWind from/ knotsBaromVisibWave heightAir tempDewpointWater temp
2017-Nov-20 00:21N 33°34' W 118°18'513.4
2017-Nov-19 23:57N 33°36' W 118°12'4 2.4
2017-Nov-19 22:29N 33°39' W 118°14'712.6
2017-Nov-19 21:57N 33°39' W 118°22'610.0
2017-Nov-19 21:22N 33°44' W 118°26'8 0.4
2017-Nov-19 01:16N 33°44' W 118°17'0 0.0
2017-Nov-19 01:00N 33°44' W 118°17'0 0.0
2017-Nov-19 00:30N 33°44' W 118°17'3 6.0
2017-Nov-18 23:59N 33°41' W 118°15'10 8.3
2017-Nov-18 22:49N 33°32' W 118°11'514.9
2017-Nov-18 22:31N 33°37' W 118°12'8 7.5
2017-Nov-18 21:25N 33°44' W 118°17'0 0.0
2017-Nov-18 21:00N 33°44' W 118°17'6 0.1
2017-Nov-17 00:56N 33°38' W 118°17'3 3.5
2017-Nov-17 00:01N 33°35' W 118°18'022.7
2017-Nov-17 00:00N 33°35' W 118°18'5 3.6
2017-Nov-16 22:28N 33°39' W 118°13'1124.9
2017-Nov-16 22:01N 33°31' W 118°23'2 4.0
2017-Nov-16 21:30N 33°29' W 118°23'714.0
2017-Nov-16 21:00N 33°34' W 118°17'6 0.3
2017-Nov-16 01:15N 33°38' W 118°13'521.2
2017-Nov-16 01:00N 33°33' W 118°15'3 4.7
2017-Nov-16 00:25N 33°32' W 118°18'1 2.3
2017-Nov-15 23:58N 33°33' W 118°17'1224.5
2017-Nov-15 23:29N 33°43' W 118°11'6 5.1
2017-Nov-15 22:18N 33°37' W 118°13'1122.4
2017-Nov-15 21:49N 33°28' W 118°21'1 2.1
2017-Nov-15 21:27N 33°29' W 118°21'716.5
2017-Nov-15 21:00N 33°36' W 118°18'11 3.9
2017-Nov-15 18:10N 33°46' W 118°12'10 0.6
2017-Nov-15 01:06N 33°37' W 118°18'324.8
2017-Nov-15 00:59N 33°36' W 118°22'1 1.5
2017-Nov-15 00:29N 33°35' W 118°22'3 6.7
2017-Nov-14 23:59N 33°36' W 118°18'11 8.0
2017-Nov-14 22:40N 33°45' W 118°12'719.0
2017-Nov-14 22:18N 33°39' W 118°13'720.9
2017-Nov-14 21:59N 33°35' W 118°20'2 3.8
2017-Nov-14 21:28N 33°37' W 118°19'2 4.2
2017-Nov-14 21:00N 33°37' W 118°17'1010.6
2017-Nov-14 20:03N 33°46' W 118°12'0 5.8
2017-Nov-14 20:00N 33°45' W 118°11'4 7.8
2017-Nov-14 19:26N 33°44' W 118°17'4 0.2
2017-Nov-14 01:41N 33°46' W 118°12'0 1.7
2017-Nov-14 01:29N 33°45' W 118°12'816.1
2017-Nov-14 01:01N 33°38' W 118°14'4 7.9
2017-Nov-14 00:29N 33°37' W 118°19'2 3.2
2017-Nov-14 00:00N 33°37' W 118°17'918.6
2017-Nov-13 23:30N 33°45' W 118°11'1 1.3
2017-Nov-13 23:00N 33°46' W 118°12'2 3.1
2017-Nov-13 22:30N 33°44' W 118°11'1217.5
2017-Nov-13 21:49N 33°34' W 118°17'6 0.3
2017-Nov-13 01:39N 33°39' W 118°14'321.9
2017-Nov-13 01:30N 33°36' W 118°17'510.8
2017-Nov-13 01:00N 33°33' W 118°21'15 8.3
2017-Nov-12 23:10N 33°46' W 118°12'0 0.0
2017-Nov-12 23:00N 33°46' W 118°12'815.5
2017-Nov-12 22:30N 33°39' W 118°16'1225.2
2017-Nov-12 22:00N 33°31' W 118°27'4 3.3
2017-Nov-12 20:54N 33°29' W 118°31'1214.5
2017-Nov-12 20:05N 33°36' W 118°20'221.5
2017-Nov-12 20:00N 33°37' W 118°18'10 0.6
2017-Nov-12 03:26N 33°45' W 118°11'2 3.2
2017-Nov-12 02:54N 33°46' W 118°13'2 0.6
2017-Nov-11 23:55N 33°45' W 118°11'816.8
2017-Nov-11 23:26N 33°41' W 118°20'  

Dump ship's entire track history